Parkdale, Ohio
Current Conditions -  °F | °C
As of 8:53 PM on Thursday 20 Nov 2014 (Local Time) from KHAO Reporting Station
Clear Clear  
Wind Chill: 18°   Ceiling: Unl
Heat Index: 18°   Visibility: 10mi
Dew Point: 13°   Wind: 0mph
Humidity: 81%   Direction: NA
Pressure: 30.23"   Gusts: NA
Location:  39.2843°N, 84.5257°W
Report Text: KHAO 210153Z AUTO 00000KT 10SM CLR M08/M11 A3023 RMK AO2 SLP247 T10781106
Loading
Personal Weather Stations






























Interactive Weather Map New forecast layout! Learn more

10-Day Weather Forecast

Advertisements
Track Severe Weather on mobile